KOSU/OSU METAR and TAF weather

Enter ICAO airport designator
Station Type Date Time Source
KOSU METAR 2022/01/26 19:53 UTC NOAA

KOSU 261953Z 25004KT 10SM CLR M07/M16 A3041 RMK AO2 SLP316 T10721161


Station Type Date Time Source
KOSU Decoded METAR 2022/01/26 19:53 UTC NOAA

OHIO STATE UNIVERSITY AIRPORT , OH, United States (KOSU) 40-05N 083-05W 280M
Jan 26, 2022 - 02:53 PM EST / 2022.01.26 1953 UTC
Wind: from the WSW (250 degrees) at 5 MPH (4 KT):0
Visibility: 10 mile(s):0
Sky conditions: clear
Temperature: 19.0 F (-7.2 C)
Windchill: 12 F (-11 C):1
Dew Point: 3.0 F (-16.1 C)
Relative Humidity: 48%
Pressure (altimeter): 30.41 in. Hg (1029 hPa)
ob: KOSU 261953Z 25004KT 10SM CLR M07/M16 A3041 RMK AO2 SLP316 T10721161
cycle: 20

Station Type Date Time Source
KOSU TAF UTC NOAA

Error!

Example: see airport list